Time;durP1;ratioP1;P1;durP2;ratioP2;P2;SDS_P1;SDS_P2;PMS_P1;PMS_P2;Temp;Humidity;BMP_temperature;BMP_pressure;BME280_temperature;BME280_humidity;BME280_pressure;Samples;Min_cycle;Max_cycle;Signal;HPM_P1;HPM_P2
2022/01/17 00:01:50;;;;;;;41.53;22.80;;;1.90;63.80;;;;;;5073152;28;20518;-20
2022/01/17 00:04:16;;;;;;;51.92;28.02;;;1.80;62.70;;;;;;5072931;28;20033;-19
2022/01/17 00:06:43;;;;;;;46.97;25.27;;;1.70;63.00;;;;;;5073727;28;20104;-21
2022/01/17 00:09:10;;;;;;;64.82;36.45;;;1.70;63.70;;;;;;5073287;28;20032;-20
2022/01/17 00:11:42;;;;;;;38.53;20.00;;;1.70;63.90;;;;;;5073386;28;20028;-20
2022/01/17 00:14:13;;;;;;;45.28;27.63;;;1.60;63.70;;;;;;5073654;28;20017;-20
2022/01/17 00:16:44;;;;;;;47.20;28.20;;;1.60;63.00;;;;;;5073349;28;20465;-20
2022/01/17 00:21:50;;;;;;;20.15;11.00;;;1.60;62.60;;;;;;5072874;28;20049;-20
2022/01/17 00:24:18;;;;;;;24.13;14.25;;;1.50;62.20;;;;;;5072628;28;20040;-20
2022/01/17 00:26:47;;;;;;;50.80;28.45;;;1.50;62.30;;;;;;5073146;28;20074;-20
2022/01/17 00:29:13;;;;;;;26.40;16.15;;;1.40;63.00;;;;;;5073203;28;20056;-20
2022/01/17 00:31:39;;;;;;;23.50;12.32;;;1.40;62.20;;;;;;5071614;28;20071;-20
2022/01/17 00:34:05;;;;;;;18.30;10.32;;;1.40;62.10;;;;;;5073054;28;20028;-20
2022/01/17 00:36:31;;;;;;;18.65;10.60;;;1.30;62.00;;;;;;5072486;28;20101;-21
2022/01/17 00:38:57;;;;;;;30.98;19.35;;;1.30;61.50;;;;;;5073259;28;20031;-20
2022/01/17 00:41:23;;;;;;;33.75;18.52;;;1.20;62.00;;;;;;5072993;28;20607;-20
2022/01/17 00:43:49;;;;;;;18.42;10.70;;;1.20;62.00;;;;;;5072693;28;20029;-20
2022/01/17 00:46:15;;;;;;;29.40;17.23;;;1.20;61.40;;;;;;5072587;28;20024;-21
2022/01/17 00:48:41;;;;;;;19.67;10.45;;;1.10;61.60;;;;;;5073076;28;20438;-20
2022/01/17 00:51:07;;;;;;;40.38;23.67;;;1.10;61.70;;;;;;5072881;28;20086;-20
2022/01/17 00:53:36;;;;;;;20.40;11.13;;;1.00;62.20;;;;;;5072572;28;20033;-20
2022/01/17 00:56:05;;;;;;;41.60;23.80;;;0.90;62.60;;;;;;5072653;28;20052;-20
2022/01/17 00:58:31;;;;;;;28.27;16.00;;;0.90;62.70;;;;;;5072385;28;20506;-20
2022/01/17 01:00:57;;;;;;;20.30;10.57;;;0.90;63.40;;;;;;5075760;28;20103;-20
2022/01/17 01:03:23;;;;;;;33.88;20.60;;;0.80;62.60;;;;;;5076284;28;20477;-20
2022/01/17 01:05:49;;;;;;;41.88;25.73;;;0.80;62.40;;;;;;5076530;28;20063;-20
2022/01/17 01:08:15;;;;;;;36.95;21.45;;;0.80;63.10;;;;;;5076121;28;20036;-20
2022/01/17 01:10:41;;;;;;;49.85;27.63;;;0.70;62.20;;;;;;5075982;28;20021;-20
2022/01/17 01:13:08;;;;;;;52.22;28.75;;;0.70;64.70;;;;;;5076705;28;20550;-20
2022/01/17 01:15:46;;;;;;;36.42;21.42;;;0.70;63.80;;;;;;5076459;28;20028;-21
2022/01/17 01:28:40;;;;;;;41.63;23.50;;;0.60;63.20;;;;;;5076500;28;20039;-19
2022/01/17 01:31:12;;;;;;;24.55;13.40;;;0.60;63.60;;;;;;5076459;28;20100;-20
2022/01/17 01:33:42;;;;;;;23.70;12.48;;;0.70;63.40;;;;;;5075826;28;20126;-20
2022/01/17 01:36:15;;;;;;;38.40;20.38;;;0.70;63.50;;;;;;5076023;28;20025;-20
2022/01/17 01:38:42;;;;;;;29.13;16.38;;;0.70;64.50;;;;;;5075619;28;20027;-20
2022/01/17 01:41:09;;;;;;;42.28;23.63;;;0.70;64.80;;;;;;5075851;28;20103;-20
2022/01/17 01:43:36;;;;;;;50.65;31.13;;;0.70;63.40;;;;;;5075937;28;20024;-20
2022/01/17 01:46:03;;;;;;;22.67;13.23;;;0.70;63.50;;;;;;5075665;28;20099;-20
2022/01/17 01:48:32;;;;;;;45.88;27.95;;;0.70;63.20;;;;;;5074195;28;20021;-20
2022/01/17 01:50:58;;;;;;;48.35;27.73;;;0.60;64.80;;;;;;5076585;28;20048;-20
2022/01/17 01:53:25;;;;;;;22.92;12.52;;;0.60;65.60;;;;;;5075641;28;20071;-21
2022/01/17 01:55:54;;;;;;;23.92;13.68;;;0.60;63.90;;;;;;5075322;28;20056;-19
2022/01/17 01:58:21;;;;;;;36.83;19.92;;;0.60;63.50;;;;;;5075036;28;20035;-20
2022/01/17 02:00:48;;;;;;;58.75;34.00;;;0.60;63.40;;;;;;5075499;28;20035;-20
2022/01/17 02:03:15;;;;;;;28.02;14.85;;;0.50;65.80;;;;;;5075231;28;20036;-20
2022/01/17 02:05:43;;;;;;;30.45;14.90;;;0.60;64.60;;;;;;5075510;28;20067;-19
2022/01/17 02:08:10;;;;;;;33.53;19.15;;;0.50;64.00;;;;;;5075430;28;20033;-20
2022/01/17 02:10:37;;;;;;;23.90;12.45;;;0.50;63.50;;;;;;5075681;28;20025;-20
2022/01/17 02:13:03;;;;;;;25.38;15.23;;;0.40;63.00;;;;;;5074684;28;20028;-19
2022/01/17 02:15:29;;;;;;;68.55;38.47;;;0.40;62.80;;;;;;5075831;28;20032;-20
2022/01/17 02:17:57;;;;;;;74.88;41.05;;;0.40;63.60;;;;;;5073814;28;20029;-19
2022/01/17 02:20:34;;;;;;;59.13;30.50;;;0.40;68.60;;;;;;5074756;28;20035;-19
2022/01/17 02:23:04;;;;;;;44.97;25.58;;;0.30;69.10;;;;;;5074880;28;20078;-19
2022/01/17 02:25:31;;;;;;;37.38;21.30;;;0.30;67.00;;;;;;5074761;28;20103;-19
2022/01/17 02:27:57;;;;;;;53.65;29.55;;;0.20;65.60;;;;;;5074769;28;20033;-20
2022/01/17 02:30:26;;;;;;;79.95;44.50;;;0.20;65.70;;;;;;5074788;28;20023;-20
2022/01/17 02:32:52;;;;;;;69.55;41.28;;;0.20;66.30;;;;;;5074656;28;20035;-19
2022/01/17 02:35:21;;;;;;;34.33;19.77;;;0.20;66.30;;;;;;5074605;28;20554;-20
2022/01/17 02:37:49;;;;;;;62.15;35.55;;;0.30;66.70;;;;;;5074550;28;20115;-19
2022/01/17 02:40:17;;;;;;;44.65;25.75;;;0.30;71.90;;;;;;5072888;28;20040;-20
2022/01/17 02:42:47;;;;;;;79.72;44.85;;;0.30;68.30;;;;;;5073233;28;20558;-19
2022/01/17 02:45:38;;;;;;;39.47;21.80;;;0.30;72.00;;;;;;5074530;28;20047;-20
2022/01/17 02:48:03;;;;;;;38.05;21.02;;;0.30;68.80;;;;;;5074187;28;20048;-20
2022/01/17 02:50:30;;;;;;;53.28;30.40;;;0.30;69.10;;;;;;5074092;28;20066;-20
2022/01/17 02:53:05;;;;;;;27.23;15.40;;;0.30;68.40;;;;;;5074534;28;20036;-20
2022/01/17 02:55:31;;;;;;;53.92;31.40;;;0.30;67.20;;;;;;5073922;28;20044;-20
2022/01/17 02:57:58;;;;;;;53.20;32.78;;;0.30;67.30;;;;;;5074449;28;20067;-19
2022/01/17 03:00:24;;;;;;;59.67;35.05;;;0.30;68.20;;;;;;5073810;28;20036;-20
2022/01/17 03:02:50;;;;;;;43.55;23.88;;;0.30;68.80;;;;;;5074331;28;20050;-20
2022/01/17 03:05:17;;;;;;;33.75;19.50;;;0.20;68.10;;;;;;5074374;28;20102;-20
2022/01/17 03:07:45;;;;;;;31.73;17.13;;;0.20;66.70;;;;;;5074296;28;20028;-20
2022/01/17 03:10:37;;;;;;;58.92;31.58;;;0.20;66.80;;;;;;5073755;28;20041;-20
2022/01/17 03:13:05;;;;;;;47.45;26.33;;;0.20;68.00;;;;;;5073916;28;20036;-20
2022/01/17 03:15:36;;;;;;;54.60;28.92;;;0.30;70.60;;;;;;5073824;28;20024;-20
2022/01/17 03:18:03;;;;;;;65.00;33.22;;;0.30;71.40;;;;;;5073815;28;20023;-20
2022/01/17 03:20:30;;;;;;;58.67;31.88;;;0.40;76.10;;;;;;5073530;28;20032;-20
2022/01/17 03:22:57;;;;;;;39.80;21.45;;;0.40;76.70;;;;;;5072920;28;20024;-20
2022/01/17 03:25:23;;;;;;;49.72;27.30;;;0.50;73.60;;;;;;5072357;28;20032;-20
2022/01/17 03:27:49;;;;;;;38.58;22.27;;;0.60;72.30;;;;;;5073868;28;20122;-20
2022/01/17 03:30:16;;;;;;;80.35;37.45;;;0.70;71.20;;;;;;5072105;28;20491;-19
2022/01/17 03:32:42;;;;;;;56.65;27.38;;;0.80;73.40;;;;;;5073808;28;20066;-20
2022/01/17 03:35:09;;;;;;;63.28;28.98;;;0.90;75.40;;;;;;5073414;28;20097;-19
2022/01/17 03:37:36;;;;;;;55.40;22.20;;;1.00;71.40;;;;;;5073483;28;20488;-19
2022/01/17 03:40:03;;;;;;;87.97;30.63;;;1.10;71.50;;;;;;5073427;28;20382;-19
2022/01/17 03:42:30;;;;;;;92.70;30.25;;;1.20;71.60;;;;;;5073401;28;20392;-19
2022/01/17 03:44:56;;;;;;;123.57;37.42;;;1.30;71.80;;;;;;5073643;28;20028;-20
2022/01/17 03:47:22;;;;;;;111.05;34.40;;;1.40;75.90;;;;;;5073266;28;20459;-20
2022/01/17 03:49:48;;;;;;;94.32;29.60;;;1.50;76.20;;;;;;5073512;28;20039;-19
2022/01/17 03:52:14;;;;;;;32.88;15.55;;;1.60;76.40;;;;;;5073652;28;20017;-20
2022/01/17 03:54:40;;;;;;;37.83;16.73;;;1.60;72.90;;;;;;5072865;28;20078;-19
2022/01/17 03:57:06;;;;;;;34.92;14.07;;;1.70;71.60;;;;;;5073478;28;20024;-19
2022/01/17 03:59:32;;;;;;;93.70;31.23;;;1.80;71.50;;;;;;5073436;28;20020;-19
2022/01/17 04:01:58;;;;;;;107.32;33.03;;;1.90;73.10;;;;;;5073600;28;20465;-19
2022/01/17 04:04:24;;;;;;;90.40;29.23;;;2.00;76.50;;;;;;5072884;28;20030;-20
2022/01/17 04:06:50;;;;;;;85.70;27.83;;;2.10;75.10;;;;;;5073112;28;20071;-19
2022/01/17 04:09:16;;;;;;;52.95;20.23;;;2.10;76.00;;;;;;5073275;28;20142;-19
2022/01/17 04:11:43;;;;;;;92.88;27.48;;;2.20;74.00;;;;;;5073348;28;20025;-20
2022/01/17 04:14:10;;;;;;;62.85;23.52;;;2.30;72.80;;;;;;5073232;28;20024;-19
2022/01/17 04:16:36;;;;;;;166.23;37.15;;;2.40;73.40;;;;;;5073700;28;20028;-20
2022/01/17 04:19:03;;;;;;;98.85;30.05;;;2.40;74.80;;;;;;5073358;28;20096;-20
2022/01/17 04:21:34;;;;;;;40.03;18.17;;;2.50;73.30;;;;;;5073159;28;20366;-20
2022/01/17 04:24:00;;;;;;;46.95;18.80;;;2.50;71.90;;;;;;5072892;28;20035;-19
2022/01/17 04:26:26;;;;;;;108.57;30.25;;;2.60;72.10;;;;;;5072954;28;20028;-20
2022/01/17 04:28:52;;;;;;;121.20;28.90;;;2.60;75.20;;;;;;5072840;28;20381;-20
2022/01/17 04:31:18;;;;;;;88.18;24.65;;;2.60;72.90;;;;;;5071604;28;20462;-20
2022/01/17 04:33:44;;;;;;;23.58;9.93;;;2.70;72.80;;;;;;5073461;28;20028;-20
2022/01/17 04:36:11;;;;;;;57.35;21.05;;;2.70;72.30;;;;;;5076642;28;20024;-20
2022/01/17 04:38:37;;;;;;;68.43;21.30;;;2.80;71.70;;;;;;5076795;28;20095;-21
2022/01/17 04:41:12;;;;;;;225.23;44.10;;;2.90;71.10;;;;;;5076699;28;20031;-21
2022/01/17 04:46:06;;;;;;;72.50;26.08;;;3.00;75.30;;;;;;5076800;28;20032;-21
2022/01/17 04:48:33;;;;;;;42.63;19.08;;;3.00;73.20;;;;;;5076834;28;20102;-20
2022/01/17 04:51:00;;;;;;;239.60;46.33;;;3.10;72.00;;;;;;5076863;28;20051;-20
2022/01/17 04:53:31;;;;;;;32.35;15.32;;;3.10;72.30;;;;;;5076839;28;20508;-20
2022/01/17 04:55:58;;;;;;;72.72;23.05;;;3.20;71.90;;;;;;5076292;28;20080;-21
2022/01/17 04:58:25;;;;;;;57.67;19.95;;;3.20;72.80;;;;;;5076251;28;20056;-20
2022/01/17 05:00:51;;;;;;;117.28;31.20;;;3.20;71.80;;;;;;5076679;28;20052;-21
2022/01/17 05:03:20;;;;;;;55.25;20.40;;;3.30;72.20;;;;;;5076589;28;20089;-21
2022/01/17 05:05:47;;;;;;;104.85;31.05;;;3.30;72.30;;;;;;5075040;28;20076;-21
2022/01/17 05:08:14;;;;;;;119.95;28.15;;;3.30;73.00;;;;;;5076168;28;20031;-21
2022/01/17 05:10:44;;;;;;;44.17;17.17;;;3.30;71.70;;;;;;5076031;28;20146;-21
2022/01/17 05:13:16;;;;;;;44.42;15.07;;;3.30;72.40;;;;;;5076187;28;20036;-21
2022/01/17 05:16:05;;;;;;;57.15;22.95;;;3.40;71.10;;;;;;5076093;28;20025;-21
2022/01/17 05:21:00;;;;;;;53.00;20.30;;;3.50;70.40;;;;;;5076005;28;20057;-21
2022/01/17 05:23:26;;;;;;;109.80;27.27;;;3.60;70.00;;;;;;5076248;28;20064;-22
2022/01/17 05:25:52;;;;;;;66.88;23.83;;;3.60;69.80;;;;;;5076140;28;20475;-21
2022/01/17 05:28:18;;;;;;;72.88;27.55;;;3.60;70.20;;;;;;5075704;28;20035;-21
2022/01/17 05:30:45;;;;;;;43.28;15.07;;;3.70;70.60;;;;;;5076133;28;20021;-21
2022/01/17 05:33:11;;;;;;;170.68;36.13;;;3.70;70.00;;;;;;5075780;28;20025;-21
2022/01/17 05:35:37;;;;;;;125.18;31.10;;;3.70;71.70;;;;;;5075750;28;20028;-21
2022/01/17 05:38:03;;;;;;;117.15;32.42;;;3.70;71.00;;;;;;5076015;28;20031;-20
2022/01/17 05:40:30;;;;;;;112.35;31.02;;;3.70;72.10;;;;;;5075328;28;20032;-20
2022/01/17 05:42:56;;;;;;;47.92;17.67;;;3.70;72.00;;;;;;5075938;28;20043;-21
2022/01/17 05:45:22;;;;;;;32.75;14.95;;;3.80;71.30;;;;;;5075553;28;20500;-20
2022/01/17 05:47:49;;;;;;;77.82;26.20;;;3.80;71.10;;;;;;5074845;28;20060;-20
2022/01/17 05:50:16;;;;;;;78.63;23.52;;;3.70;70.80;;;;;;5075305;28;20021;-20
2022/01/17 05:52:43;;;;;;;209.60;38.10;;;3.80;70.50;;;;;;5075471;28;20033;-20
2022/01/17 05:55:12;;;;;;;102.90;27.92;;;3.80;70.10;;;;;;5073737;28;20048;-20
2022/01/17 05:57:38;;;;;;;199.85;39.28;;;3.80;70.20;;;;;;5075331;28;20037;-20
2022/01/17 06:00:08;;;;;;;260.92;39.58;;;3.90;73.10;;;;;;5075836;28;20032;-20
2022/01/17 06:02:34;;;;;;;48.45;18.17;;;3.90;73.80;;;;;;5075420;28;20024;-20
2022/01/17 06:05:00;;;;;;;113.00;28.65;;;3.90;73.00;;;;;;5075231;28;20385;-20
2022/01/17 06:07:26;;;;;;;119.93;27.15;;;3.90;72.30;;;;;;5075434;28;20029;-21
2022/01/17 06:09:52;;;;;;;30.58;12.10;;;3.90;71.70;;;;;;5075009;28;20032;-21
2022/01/17 06:12:18;;;;;;;116.53;31.58;;;3.80;71.60;;;;;;5074848;28;20028;-21
2022/01/17 06:14:44;;;;;;;21.08;8.98;;;3.80;71.70;;;;;;5074985;28;20031;-20
2022/01/17 06:17:11;;;;;;;30.13;13.27;;;3.80;71.30;;;;;;5075052;28;20063;-21
2022/01/17 06:19:37;;;;;;;76.75;24.73;;;3.80;70.70;;;;;;5074965;28;20036;-21
2022/01/17 06:22:04;;;;;;;155.52;30.58;;;3.80;71.20;;;;;;5074785;28;20040;-21
2022/01/17 06:24:32;;;;;;;83.97;24.42;;;3.90;72.50;;;;;;5074628;28;20037;-21
2022/01/17 06:26:58;;;;;;;101.55;26.55;;;3.80;72.10;;;;;;5074799;28;20112;-21
2022/01/17 06:29:25;;;;;;;73.80;17.13;;;3.80;72.70;;;;;;5075082;28;20025;-21
2022/01/17 06:31:51;;;;;;;44.92;12.73;;;3.80;71.80;;;;;;5074734;28;20506;-21
2022/01/17 06:34:17;;;;;;;112.28;24.90;;;3.80;71.30;;;;;;5074772;28;20111;-21
2022/01/17 06:36:43;;;;;;;42.10;16.38;;;3.80;71.00;;;;;;5074654;28;20493;-21
2022/01/17 06:39:11;;;;;;;21.10;8.23;;;3.80;70.90;;;;;;5074768;28;20067;-21
2022/01/17 06:41:39;;;;;;;48.53;18.10;;;3.90;70.40;;;;;;5074740;28;20150;-20
2022/01/17 06:44:06;;;;;;;76.35;20.33;;;3.90;70.30;;;;;;5074468;28;20033;-21
2022/01/17 06:46:33;;;;;;;86.32;22.13;;;3.90;70.80;;;;;;5074532;28;20025;-21
2022/01/17 06:48:59;;;;;;;132.40;28.55;;;3.80;70.80;;;;;;5074817;28;20422;-21
2022/01/17 06:51:27;;;;;;;146.90;26.95;;;3.80;72.50;;;;;;5074657;28;20523;-21
2022/01/17 06:53:53;;;;;;;229.88;37.42;;;3.80;71.70;;;;;;5074314;28;20163;-21
2022/01/17 06:56:19;;;;;;;185.27;36.35;;;3.80;74.50;;;;;;5073911;28;20505;-21
2022/01/17 06:58:46;;;;;;;167.73;31.52;;;3.70;74.60;;;;;;5073926;28;20116;-21
2022/01/17 07:01:16;;;;;;;35.28;13.13;;;3.70;74.50;;;;;;5074013;28;20076;-21
2022/01/17 07:03:44;;;;;;;231.95;40.67;;;3.70;73.30;;;;;;5074063;28;20048;-21
2022/01/17 07:06:10;;;;;;;153.32;33.47;;;3.70;74.00;;;;;;5073997;28;20107;-21
2022/01/17 07:08:36;;;;;;;159.32;32.15;;;3.70;74.30;;;;;;5074276;28;20087;-21
2022/01/17 07:11:03;;;;;;;114.30;29.13;;;3.70;73.20;;;;;;5073979;28;20028;-21
2022/01/17 07:13:29;;;;;;;276.27;46.30;;;3.80;73.60;;;;;;5072661;28;20546;-21
2022/01/17 07:15:55;;;;;;;211.20;39.45;;;3.80;72.90;;;;;;5074134;28;20037;-21
2022/01/17 07:18:21;;;;;;;118.70;30.95;;;3.80;73.70;;;;;;5073632;28;20099;-21
2022/01/17 07:20:47;;;;;;;28.25;13.20;;;3.80;75.10;;;;;;5073698;28;20029;-21
2022/01/17 07:23:14;;;;;;;286.17;47.60;;;3.90;74.00;;;;;;5074551;28;20029;-21
2022/01/17 07:25:41;;;;;;;40.17;17.98;;;3.90;74.20;;;;;;5073731;28;20036;-21
2022/01/17 07:28:08;;;;;;;112.55;31.63;;;3.90;73.50;;;;;;5073572;28;20397;-21
2022/01/17 07:30:36;;;;;;;49.47;21.08;;;3.90;73.20;;;;;;5073998;28;20465;-21
2022/01/17 07:33:03;;;;;;;56.42;22.95;;;3.90;72.80;;;;;;5073523;28;20392;-21
2022/01/17 07:35:30;;;;;;;47.38;22.48;;;3.90;73.00;;;;;;5073512;28;20033;-21
2022/01/17 07:37:56;;;;;;;97.70;27.63;;;4.00;72.60;;;;;;5073761;28;20055;-21
2022/01/17 07:40:22;;;;;;;46.08;20.15;;;4.00;72.00;;;;;;5073141;28;20481;-21
2022/01/17 07:42:48;;;;;;;90.55;25.25;;;4.10;71.90;;;;;;5073819;28;20033;-21
2022/01/17 07:45:16;;;;;;;144.57;31.65;;;4.20;72.30;;;;;;5073279;28;20028;-21
2022/01/17 07:48:08;;;;;;;53.50;22.58;;;4.20;73.80;;;;;;5073341;28;20488;-21
2022/01/17 07:50:32;;;;;;;83.72;23.88;;;4.30;73.00;;;;;;5073064;28;20046;-21
2022/01/17 07:52:58;;;;;;;23.90;12.25;;;4.30;73.40;;;;;;5073295;28;20032;-21
2022/01/17 07:55:24;;;;;;;68.28;22.63;;;4.40;72.50;;;;;;5073100;28;20102;-21
2022/01/17 07:57:50;;;;;;;30.00;13.23;;;4.40;73.50;;;;;;5073199;28;20020;-21
2022/01/17 08:00:20;;;;;;;62.60;24.05;;;4.40;72.70;;;;;;5072869;28;20123;-21
2022/01/17 08:02:48;;;;;;;57.75;19.45;;;4.50;73.00;;;;;;5073140;28;20028;-21
2022/01/17 08:05:14;;;;;;;84.75;25.45;;;4.50;73.40;;;;;;5073122;28;20028;-21
2022/01/17 08:07:42;;;;;;;100.90;25.13;;;4.60;74.30;;;;;;5073048;28;20040;-21
2022/01/17 08:10:12;;;;;;;48.33;15.85;;;4.60;73.60;;;;;;5072394;28;20500;-21
2022/01/17 08:12:43;;;;;;;120.82;27.85;;;4.70;74.30;;;;;;5073051;28;20112;-21
2022/01/17 08:15:11;;;;;;;223.88;39.22;;;4.80;73.40;;;;;;5073094;28;20137;-21
2022/01/17 08:17:37;;;;;;;55.70;16.88;;;4.90;74.80;;;;;;5073257;28;20032;-21
2022/01/17 08:20:05;;;;;;;69.28;23.52;;;4.90;73.40;;;;;;5072931;28;20028;-21
2022/01/17 08:22:31;;;;;;;55.38;19.10;;;4.90;74.80;;;;;;5072794;28;20081;-21
2022/01/17 08:24:57;;;;;;;58.40;21.73;;;5.00;73.60;;;;;;5072808;28;20503;-21
2022/01/17 08:27:23;;;;;;;60.05;18.83;;;5.10;72.50;;;;;;5071685;28;20025;-21
2022/01/17 08:29:49;;;;;;;104.30;24.30;;;5.10;73.00;;;;;;5072908;28;20029;-21
2022/01/17 08:32:15;;;;;;;27.58;11.68;;;5.20;73.60;;;;;;5072723;28;20021;-21
2022/01/17 08:34:41;;;;;;;31.60;15.02;;;5.30;72.80;;;;;;5073093;28;20362;-21
2022/01/17 08:37:07;;;;;;;60.17;20.90;;;5.30;72.40;;;;;;5072775;28;20055;-21
2022/01/17 08:39:33;;;;;;;47.85;19.50;;;5.40;72.40;;;;;;5072679;28;20021;-21
2022/01/17 08:41:59;;;;;;;62.88;18.10;;;5.50;71.90;;;;;;5073827;28;20036;-21
2022/01/17 08:44:25;;;;;;;39.65;15.32;;;5.60;72.00;;;;;;5072539;28;20032;-21
2022/01/17 08:46:51;;;;;;;127.20;31.73;;;5.70;72.60;;;;;;5073033;28;20016;-21
2022/01/17 08:49:18;;;;;;;61.50;20.65;;;5.80;73.30;;;;;;5072912;28;20020;-22
2022/01/17 08:51:44;;;;;;;91.88;24.35;;;5.80;71.50;;;;;;5072705;28;20050;-21
2022/01/17 08:54:10;;;;;;;42.80;19.30;;;5.90;71.80;;;;;;5072573;28;20035;-21
2022/01/17 08:56:36;;;;;;;39.80;17.08;;;6.00;72.00;;;;;;5072498;28;20048;-21
2022/01/17 08:59:03;;;;;;;20.45;9.20;;;6.20;71.20;;;;;;5072628;28;20028;-21
2022/01/17 09:01:29;;;;;;;37.63;18.45;;;6.20;70.70;;;;;;5072514;28;20028;-21
2022/01/17 09:03:56;;;;;;;75.65;26.60;;;6.40;70.80;;;;;;5072566;28;20029;-21
2022/01/17 09:06:25;;;;;;;44.67;18.67;;;6.50;70.50;;;;;;5072265;28;20035;-21
2022/01/17 09:08:51;;;;;;;33.80;16.30;;;6.50;70.20;;;;;;5072791;28;20039;-21
2022/01/17 09:11:17;;;;;;;35.47;18.45;;;6.60;70.10;;;;;;5072398;28;20110;-21
2022/01/17 09:13:43;;;;;;;27.52;14.10;;;6.60;69.90;;;;;;5072488;28;20060;-21
2022/01/17 09:16:09;;;;;;;27.00;14.60;;;6.70;69.60;;;;;;5072740;28;20028;-21
2022/01/17 09:18:36;;;;;;;22.65;11.63;;;6.70;69.70;;;;;;5072549;28;20527;-21
2022/01/17 09:21:02;;;;;;;19.92;9.93;;;6.80;69.20;;;;;;5074046;28;20036;-21
2022/01/17 09:23:28;;;;;;;47.45;23.05;;;6.90;69.40;;;;;;5076313;28;20020;-21
2022/01/17 09:25:54;;;;;;;35.85;19.35;;;7.00;68.90;;;;;;5075827;28;20445;-21
2022/01/17 09:28:21;;;;;;;18.55;8.90;;;7.00;68.80;;;;;;5076003;28;20552;-21
2022/01/17 09:30:47;;;;;;;20.77;10.48;;;7.20;68.50;;;;;;5075900;28;20099;-21
2022/01/17 09:33:13;;;;;;;33.00;17.08;;;7.20;68.30;;;;;;5076068;28;20048;-21
2022/01/17 09:35:39;;;;;;;50.28;21.85;;;7.30;68.40;;;;;;5076160;28;20056;-21
2022/01/17 09:38:05;;;;;;;43.88;19.92;;;7.40;68.80;;;;;;5076328;28;20017;-21
2022/01/17 09:40:33;;;;;;;43.72;20.05;;;7.40;69.20;;;;;;5074117;28;20043;-21
2022/01/17 09:43:02;;;;;;;50.53;22.55;;;7.50;69.00;;;;;;5075943;28;20455;-21
2022/01/17 09:45:30;;;;;;;78.90;29.20;;;7.50;68.60;;;;;;5075824;28;20081;-21
2022/01/17 09:47:56;;;;;;;31.58;16.25;;;7.60;68.90;;;;;;5075570;28;20059;-21
2022/01/17 09:50:33;;;;;;;46.40;21.73;;;7.60;68.50;;;;;;5075302;28;20085;-21
2022/01/17 09:53:01;;;;;;;29.80;15.55;;;7.60;68.50;;;;;;5075529;28;20481;-21
2022/01/17 09:55:29;;;;;;;30.92;15.98;;;7.60;68.30;;;;;;5075097;28;20056;-21
2022/01/17 09:58:05;;;;;;;40.83;20.33;;;7.70;68.30;;;;;;5075349;28;20481;-21
2022/01/17 10:00:35;;;;;;;18.77;9.10;;;7.80;68.10;;;;;;5075425;28;20041;-20
2022/01/17 10:03:06;;;;;;;24.00;11.25;;;7.80;67.70;;;;;;5075352;28;20073;-21
2022/01/17 10:05:33;;;;;;;37.63;19.90;;;7.90;67.90;;;;;;5075597;28;20430;-20
2022/01/17 10:08:04;;;;;;;33.85;17.58;;;8.00;67.90;;;;;;5075503;28;20049;-21
2022/01/17 10:10:41;;;;;;;45.67;22.75;;;8.10;67.70;;;;;;5074787;28;20070;-21
2022/01/17 10:13:15;;;;;;;23.30;11.13;;;8.20;67.80;;;;;;5075220;28;20059;-20
2022/01/17 10:15:59;;;;;;;43.15;23.00;;;8.30;67.40;;;;;;5075340;28;20027;-20
2022/01/17 10:18:35;;;;;;;49.67;25.75;;;8.40;67.20;;;;;;5074880;28;20469;-20
2022/01/17 10:21:11;;;;;;;63.38;32.85;;;8.50;67.40;;;;;;5075226;28;20037;-20
2022/01/17 10:29:15;;;;;;;44.90;24.58;;;8.70;67.10;;;;;;5074900;28;20108;-20
2022/01/17 10:37:13;;;;;;;50.35;26.45;;;8.80;66.30;;;;;;5075262;28;20044;-21
2022/01/17 10:40:02;;;;;;;41.65;23.30;;;8.90;66.30;;;;;;5074513;28;20488;-20
2022/01/17 10:42:45;;;;;;;42.22;21.33;;;8.90;66.00;;;;;;5074365;28;20033;-20
2022/01/17 10:45:25;;;;;;;30.98;16.52;;;8.90;66.00;;;;;;5074838;28;20033;-21
2022/01/17 10:47:53;;;;;;;27.08;16.35;;;9.10;65.90;;;;;;5073265;28;20078;-21
2022/01/17 10:50:27;;;;;;;29.08;18.02;;;9.40;65.90;;;;;;5074341;28;20028;-21
2022/01/17 10:52:58;;;;;;;38.72;23.27;;;9.60;65.60;;;;;;5075217;28;20111;-20
2022/01/17 10:55:55;;;;;;;26.05;14.75;;;9.90;64.90;;;;;;5073997;28;20051;-20
2022/01/17 10:58:24;;;;;;;25.10;14.57;;;10.20;64.30;;;;;;5073857;28;20480;-21
2022/01/17 11:01:00;;;;;;;39.28;24.73;;;10.60;64.00;;;;;;5074405;28;20079;-21
2022/01/17 11:03:29;;;;;;;42.47;24.27;;;10.90;63.20;;;;;;5074159;28;20031;-20
2022/01/17 11:05:57;;;;;;;29.52;17.83;;;11.20;62.20;;;;;;5074124;28;20020;-20
2022/01/17 11:08:26;;;;;;;40.25;23.88;;;11.40;62.00;;;;;;5073825;28;20031;-21
2022/01/17 11:10:56;;;;;;;44.75;26.02;;;11.80;61.20;;;;;;5074114;28;20028;-21
2022/01/17 11:13:27;;;;;;;48.83;27.67;;;12.10;60.70;;;;;;5073891;28;20068;-20
2022/01/17 11:15:55;;;;;;;39.42;22.05;;;12.50;59.70;;;;;;5074078;28;20017;-20
2022/01/17 11:18:26;;;;;;;51.80;30.35;;;12.90;58.60;;;;;;5073474;28;20488;-20
2022/01/17 11:21:14;;;;;;;27.42;15.45;;;13.20;58.20;;;;;;5073773;28;20028;-21
2022/01/17 11:23:45;;;;;;;45.78;27.92;;;13.40;58.10;;;;;;5073730;28;20020;-20
2022/01/17 11:26:13;;;;;;;40.47;24.67;;;13.70;57.70;;;;;;5073413;28;20016;-20
2022/01/17 11:28:40;;;;;;;60.67;35.97;;;14.00;56.00;;;;;;5073605;28;20028;-20
2022/01/17 11:31:12;;;;;;;53.78;32.90;;;14.40;55.20;;;;;;5073591;28;20035;-20
2022/01/17 11:33:39;;;;;;;41.70;26.17;;;14.80;54.90;;;;;;5073639;28;20020;-20
2022/01/17 11:36:06;;;;;;;40.85;25.60;;;15.10;54.20;;;;;;5073587;28;20366;-20
2022/01/17 11:38:36;;;;;;;54.05;33.03;;;15.40;54.40;;;;;;5073355;28;20103;-20
2022/01/17 11:41:04;;;;;;;54.50;34.63;;;15.50;52.90;;;;;;5073161;28;20028;-20
2022/01/17 11:43:37;;;;;;;47.60;28.70;;;15.50;52.30;;;;;;5073108;28;20039;-20
2022/01/17 11:46:18;;;;;;;37.28;22.73;;;15.40;52.50;;;;;;5073210;28;20043;-20
2022/01/17 11:49:02;;;;;;;51.45;33.53;;;15.30;51.80;;;;;;5073964;28;20025;-20
2022/01/17 11:51:44;;;;;;;41.05;26.88;;;15.10;51.70;;;;;;5073354;28;20028;-20
2022/01/17 11:54:19;;;;;;;42.63;25.85;;;15.10;51.90;;;;;;5073545;28;20028;-20
2022/01/17 11:56:55;;;;;;;49.03;30.23;;;15.00;52.20;;;;;;5073159;28;20420;-20
2022/01/17 11:59:31;;;;;;;45.80;30.30;;;14.90;51.50;;;;;;5073564;28;20021;-20
2022/01/17 12:02:24;;;;;;;36.83;23.65;;;14.80;52.30;;;;;;5073385;28;20032;-20
2022/01/17 12:07:39;;;;;;;39.58;25.40;;;14.70;52.50;;;;;;5073518;28;20064;-20
2022/01/17 12:10:37;;;;;;;33.40;22.02;;;14.70;53.20;;;;;;5073338;28;20037;-20
2022/01/17 12:13:14;;;;;;;54.65;36.80;;;14.80;51.30;;;;;;5073020;28;20075;-20
2022/01/17 12:16:14;;;;;;;45.92;30.55;;;14.70;51.80;;;;;;5073516;28;20136;-20
2022/01/17 12:18:45;;;;;;;37.25;25.25;;;14.70;50.60;;;;;;5073083;28;20032;-20
2022/01/17 12:21:28;;;;;;;40.85;27.70;;;14.90;52.00;;;;;;5072912;28;20036;-20
2022/01/17 12:24:17;;;;;;;46.73;29.77;;;15.10;51.90;;;;;;5073043;28;20063;-20
2022/01/17 12:27:08;;;;;;;41.20;27.27;;;15.40;51.70;;;;;;5072887;28;20622;-20
2022/01/17 12:29:43;;;;;;;45.30;30.35;;;15.90;51.30;;;;;;5073006;28;20021;-20
2022/01/17 12:32:24;;;;;;;29.30;19.15;;;16.30;49.90;;;;;;5073379;28;20511;-20
2022/01/17 12:34:58;;;;;;;47.10;34.13;;;16.80;48.80;;;;;;5072937;28;20020;-20
2022/01/17 12:37:31;;;;;;;;;;;17.20;48.20;;;;;;5073342;28;20025;-20
2022/01/17 12:40:21;;;;;;;46.55;30.70;;;17.60;44.70;;;;;;5072644;28;19911;-20
2022/01/17 12:43:16;;;;;;;46.22;30.90;;;17.90;43.70;;;;;;5073299;28;20489;-20
2022/01/17 12:45:45;;;;;;;53.88;35.45;;;18.20;46.20;;;;;;5072440;28;20035;-20
2022/01/17 12:48:14;;;;;;;28.63;18.80;;;18.30;45.70;;;;;;5072553;28;20036;-21
2022/01/17 12:50:42;;;;;;;47.63;30.60;;;18.40;46.60;;;;;;5073010;28;20109;-20
2022/01/17 12:53:11;;;;;;;54.05;37.22;;;18.30;46.30;;;;;;5072643;28;20385;-20
2022/01/17 12:55:49;;;;;;;45.38;29.60;;;18.20;46.30;;;;;;5073362;28;20044;-20
2022/01/17 12:58:18;;;;;;;41.28;29.08;;;18.10;46.60;;;;;;5076406;28;20074;-20
2022/01/17 13:00:53;;;;;;;36.08;25.38;;;18.20;46.70;;;;;;5076395;28;20503;-20
2022/01/17 13:03:23;;;;;;;41.22;29.40;;;18.30;46.80;;;;;;5076657;28;20028;-20
2022/01/17 13:05:52;;;;;;;36.72;23.75;;;18.50;46.30;;;;;;5076381;28;20074;-20
2022/01/17 13:08:19;;;;;;;35.17;24.98;;;18.80;46.30;;;;;;5075450;28;20032;-20
2022/01/17 13:10:45;;;;;;;33.10;23.27;;;18.90;45.50;;;;;;5076492;28;20075;-20
2022/01/17 13:13:16;;;;;;;34.08;22.63;;;19.10;45.50;;;;;;5077069;28;20024;-20
2022/01/17 13:16:07;;;;;;;29.10;20.73;;;19.00;45.90;;;;;;5076238;28;20025;-20